Share

Ossineke, MI

KMIALPEN2 Elev 591 ft | 45.05 °N, 83.46 °W | Change Station

Current weather conditions updated 2 minutes ago

Clear
Clear
39.7 °F
Feels Like 37 °F
N
4.0
Wind Variable Wind from ESE
Gusts 11.0 mph
Sunrise 6:42 AM
Sunset 8:24 PM
Moon Waning Gibbous

Today is forecast to be Cooler than yesterday.

Pressure 30.54 in
Visibility 10.0 miles
Clouds Clear
Windchill 37 °F
Dew Point 32 °F
Humidity 74%
Rainfall 0.00 in
Snow Depth Not available.
UV 8 out of 16
Pollen 9.60 out of 12
Ozone Good
PM2.5 Good
Flu Activity Sporadic
METAR KAPN 191554Z AUTO 13011KT 10SM CLR 05/M02 A3051 RMK AO2 SLP340 T00501022

More Conditions Fewer Conditions

Pressure 30.54 in
Visibility 10.0 miles
Clouds Clear
Windchill 37 °F
Dew Point 32 °F
Humidity 74%
Rainfall 0.00 in
Snow Depth Not available.
UV 8 out of 16
Pollen 9.60 out of 12
Ozone Good
PM2.5 Good
Flu Activity Sporadic
METAR KAPN 191554Z AUTO 13011KT 10SM CLR 05/M02 A3051 RMK AO2 SLP340 T00501022

More Conditions Fewer Conditions

Nowcast | as of 12:15 PM EDT on April 19, 2014

At 1 PM...mostly sunny. Temperature 42. Southeast winds 11 mph. At 3 PM...mostly sunny. Temperature 45. Southeast winds 11 mph. At 5 PM...partly sunny. Temperature 44. Southeast winds 12 mph. At 7 PM...partly cloudy. Temperature 42. Southeast winds 10 mph.

×

10-Day Weather Forecast

Almanac

Astronomy

Apr. 19, 2014 Rise Set
Actual Time 6:42 AM EDT 8:24 PM EDT
Civil Twilight 6:11 AM EDT 8:55 PM EDT
Nautical Twilight 5:33 AM EDT 9:33 PM EDT
Astronomical Twilight 4:53 AM EDT 10:14 PM EDT
Moon 12:13 AM EDT 9:54 AM EDT
Length of Visible Light 14h 43m
Length of Day
13h 41m
Tomorrow will be 2m 57s longer.
Waning Gibbous, 78% of the Moon is Illuminated
Today
Waning Gibbous
Apr 22
Last Quarter
Apr 29
New
May 6
First Quarter
May 14
Full

Today's Extremes

State Highs State Lows

Community

  • A Glorious Morning
    A Glorious Morning
  • Tender Rays Of Hope
    Tender Rays Of Hope
  • Bleeding Hearts
    Bleeding Hearts
  • Sunset Silhouettes
    Sunset Silhouettes
  • FL sunset Perico Isle
    FL sunset Perico Isle

WunderPhotos

Upload Photos

1,702,783 photos uploaded!

WunderBlogs® & News

Nearby

Air Quality

  Air Quality AQ Index Pollutant
Yesterday Good
OZONE
Yesterday Good
PM2.5
Current Good
OZONE
Current Good
PM2.5
Saturday Good
PM2.5
Sunday Good
PM2.5
Monday Good
PM2.5

Snow Depth

Station Depth Elevation
No new snow has been reported.

Coastal Water Temperatures

Place Temperature
No Stations Reporting

Earthquake Activity

City Distance Mag. Time & Date
No recent earthquake activity has been reported nearby.
Minimum magnitude displayed is 2.5.

Nearby Weather Stations

Station Location Temp. Windchill Dew Point Humidity Wind Precip. Elev Updated Type
Alpena, MI 39.7 °F 37 °F 32 °F 74% ESE  at  4.0 mph 0.00 in / hr 591 ft 12:22 PM EDT Normal

Show More Stations Show Fewer Stations

What do you think?

We're not finished. Please let us know what you like, what you don't like, and what you are still missing.